Time;durP1;ratioP1;P1;durP2;ratioP2;P2;SDS_P1;SDS_P2;PMS_P1;PMS_P2;Temp;Humidity;BMP_temperature;BMP_pressure;BME280_temperature;BME280_humidity;BME280_pressure;Samples;Min_cycle;Max_cycle;Signal;HPM_P1;HPM_P2
2022/06/24 08:37:34;;;;;;;6.22;2.65;;;19.40;97.00;;;;;;5069785;28;20441;-50
2022/06/24 08:40:01;;;;;;;9.43;2.60;;;19.40;97.00;;;;;;5057183;28;20080;-54
2022/06/24 08:42:29;;;;;;;8.52;2.88;;;19.50;97.10;;;;;;5049917;28;20045;-51
2022/06/24 08:44:56;;;;;;;5.75;2.72;;;19.60;96.80;;;;;;5052670;28;20178;-49
2022/06/24 08:47:23;;;;;;;7.35;2.70;;;19.80;96.60;;;;;;5051674;28;20048;-54
2022/06/24 08:49:49;;;;;;;7.88;2.28;;;19.90;96.40;;;;;;5050179;28;20128;-52
2022/06/24 08:52:16;;;;;;;5.30;2.45;;;20.10;96.40;;;;;;5055061;28;20103;-52
2022/06/24 08:54:43;;;;;;;5.10;2.20;;;20.30;95.70;;;;;;5050184;28;20451;-53
2022/06/24 08:57:11;;;;;;;5.25;2.05;;;20.40;95.10;;;;;;5052612;28;20048;-51
2022/06/24 08:59:38;;;;;;;5.05;2.10;;;20.50;94.90;;;;;;5050079;28;20048;-53
2022/06/24 09:02:05;;;;;;;7.35;2.25;;;20.70;94.50;;;;;;5051915;28;20423;-47
2022/06/24 09:04:33;;;;;;;5.20;2.20;;;20.90;94.30;;;;;;5052479;28;20037;-50
2022/06/24 09:07:00;;;;;;;7.10;1.95;;;21.10;93.90;;;;;;5048763;28;20565;-52
2022/06/24 09:09:27;;;;;;;4.18;2.10;;;21.10;94.30;;;;;;5047976;28;20045;-53
2022/06/24 09:11:54;;;;;;;5.78;2.10;;;21.20;94.00;;;;;;5049724;28;20103;-48
2022/06/24 09:14:21;;;;;;;8.40;2.13;;;21.10;93.60;;;;;;5049750;28;20044;-53
2022/06/24 09:16:47;;;;;;;6.28;1.92;;;21.20;93.70;;;;;;5049203;28;20049;-49
2022/06/24 09:19:22;;;;;;;6.63;2.10;;;21.30;93.80;;;;;;5049949;28;20110;-53
2022/06/24 09:21:49;;;;;;;5.95;2.33;;;21.50;93.20;;;;;;5054372;28;20069;-55
2022/06/24 09:24:16;;;;;;;6.28;2.45;;;21.70;93.00;;;;;;5049560;28;20045;-56
2022/06/24 09:26:43;;;;;;;6.00;2.10;;;21.70;92.60;;;;;;5049548;28;20045;-52
2022/06/24 09:29:10;;;;;;;4.07;1.75;;;21.80;92.90;;;;;;5049631;28;20033;-47
2022/06/24 09:31:38;;;;;;;4.82;2.00;;;21.70;92.80;;;;;;5049641;28;20527;-52
2022/06/24 09:34:05;;;;;;;8.75;2.30;;;21.50;92.70;;;;;;5048238;28;20063;-51
2022/06/24 09:36:32;;;;;;;5.55;2.20;;;21.50;93.00;;;;;;5049411;28;20072;-51
2022/06/24 09:39:05;;;;;;;4.85;2.10;;;21.60;93.00;;;;;;5047237;28;20518;-55
2022/06/24 09:41:31;;;;;;;8.75;2.15;;;21.90;92.90;;;;;;5049523;28;20377;-53
2022/06/24 09:43:58;;;;;;;4.70;1.70;;;22.00;92.70;;;;;;5049487;28;20033;-50
2022/06/24 09:46:25;;;;;;;5.28;1.52;;;22.20;92.20;;;;;;5048920;28;20048;-52
2022/06/24 09:48:53;;;;;;;8.60;1.65;;;22.30;91.40;;;;;;5036038;28;20119;-54
2022/06/24 09:51:20;;;;;;;4.88;1.52;;;22.40;90.70;;;;;;5037872;28;20087;-51
2022/06/24 09:53:47;;;;;;;4.68;1.50;;;22.40;90.40;;;;;;5035713;28;20439;-51
2022/06/24 09:56:14;;;;;;;5.13;1.85;;;22.50;90.60;;;;;;5036682;28;20508;-53
2022/06/24 09:58:41;;;;;;;6.05;1.52;;;22.50;90.50;;;;;;5035754;28;20052;-58
2022/06/24 10:01:07;;;;;;;4.85;1.85;;;22.60;90.40;;;;;;5035727;28;20143;-57
2022/06/24 10:03:34;;;;;;;4.40;1.50;;;22.70;90.90;;;;;;5035613;28;20045;-52
2022/06/24 10:06:02;;;;;;;5.18;1.75;;;22.70;90.10;;;;;;5035599;28;20037;-55
2022/06/24 10:08:28;;;;;;;4.15;1.35;;;22.90;90.30;;;;;;5035741;28;20045;-55
2022/06/24 10:11:16;;;;;;;4.38;1.80;;;23.00;90.20;;;;;;5035778;28;20045;-58
2022/06/24 10:13:43;;;;;;;5.45;1.55;;;23.10;90.00;;;;;;5035539;28;20045;-51
2022/06/24 10:16:11;;;;;;;5.53;1.73;;;23.20;89.30;;;;;;5035389;28;20037;-51
2022/06/24 10:18:39;;;;;;;4.75;1.50;;;23.20;89.20;;;;;;5035226;28;20475;-51
2022/06/24 10:21:06;;;;;;;6.22;1.80;;;23.20;89.70;;;;;;5035299;28;20114;-56
2022/06/24 10:23:33;;;;;;;3.05;1.55;;;23.20;89.00;;;;;;5035088;28;20037;-52
2022/06/24 10:25:59;;;;;;;3.72;1.75;;;23.10;89.00;;;;;;5037990;28;20037;-52
2022/06/24 10:28:26;;;;;;;6.70;1.73;;;23.10;89.30;;;;;;5042407;28;20535;-51
2022/06/24 10:30:54;;;;;;;5.60;1.83;;;23.10;89.50;;;;;;5035182;28;20049;-51
2022/06/24 10:33:21;;;;;;;5.75;1.70;;;23.00;88.60;;;;;;5036154;28;20045;-52
2022/06/24 10:35:48;;;;;;;7.47;2.00;;;23.00;89.90;;;;;;5034865;28;20087;-51
2022/06/24 10:38:14;;;;;;;6.47;1.60;;;23.10;89.00;;;;;;5034979;28;20088;-55
2022/06/24 10:40:41;;;;;;;3.90;1.70;;;23.10;88.60;;;;;;5034782;28;20132;-53
2022/06/24 10:43:08;;;;;;;4.63;1.70;;;23.30;88.90;;;;;;5034299;28;20087;-54
2022/06/24 10:45:35;;;;;;;5.50;1.73;;;23.50;88.10;;;;;;5031792;28;20104;-55
2022/06/24 10:48:02;;;;;;;5.88;1.55;;;23.40;86.60;;;;;;5039762;28;20046;-53
2022/06/24 10:50:29;;;;;;;4.70;1.70;;;23.10;86.80;;;;;;5034559;28;20046;-50
2022/06/24 10:52:56;;;;;;;4.00;1.63;;;22.90;87.70;;;;;;5027899;28;20427;-53
2022/06/24 10:55:29;;;;;;;6.43;2.13;;;22.70;88.10;;;;;;5031985;28;20501;-51
2022/06/24 10:57:56;;;;;;;9.98;2.10;;;22.60;89.20;;;;;;5028143;28;20072;-52
2022/06/24 11:00:22;;;;;;;5.53;2.10;;;22.50;89.50;;;;;;5033310;28;20038;-51
2022/06/24 11:02:49;;;;;;;5.93;2.05;;;22.60;90.00;;;;;;5030993;28;20039;-49
2022/06/24 11:05:16;;;;;;;5.50;2.00;;;22.80;89.50;;;;;;5034152;28;20378;-53
2022/06/24 11:07:43;;;;;;;6.82;2.00;;;22.80;88.80;;;;;;5033886;28;20140;-53
2022/06/24 11:10:09;;;;;;;4.95;2.15;;;22.70;89.10;;;;;;5034173;28;20455;-52
2022/06/24 11:12:36;;;;;;;4.75;1.83;;;22.70;89.40;;;;;;5033600;28;20076;-48
2022/06/24 11:15:03;;;;;;;6.18;2.08;;;22.60;89.80;;;;;;5033503;28;20049;-48
2022/06/24 11:17:30;;;;;;;5.25;1.90;;;22.70;90.30;;;;;;5035613;28;20042;-54
2022/06/24 11:19:57;;;;;;;5.15;2.20;;;22.90;90.20;;;;;;5033897;28;20092;-48
2022/06/24 11:22:23;;;;;;;6.85;2.00;;;23.00;89.00;;;;;;5033838;28;20045;-53
2022/06/24 11:24:50;;;;;;;4.72;1.77;;;23.10;88.40;;;;;;5033246;28;20041;-58
2022/06/24 11:27:17;;;;;;;7.32;1.95;;;23.20;87.40;;;;;;5010067;28;20065;-56
2022/06/24 11:29:43;;;;;;;4.22;1.65;;;23.20;87.50;;;;;;4997204;28;20116;-50
2022/06/24 11:32:10;;;;;;;4.80;1.80;;;23.30;87.10;;;;;;5010192;28;20501;-53
2022/06/24 11:34:37;;;;;;;5.45;2.00;;;23.40;87.80;;;;;;5015799;28;20045;-47
2022/06/24 11:37:04;;;;;;;3.95;1.60;;;23.50;87.70;;;;;;5032925;28;20050;-50
2022/06/24 11:39:30;;;;;;;3.85;1.50;;;23.70;87.50;;;;;;5021566;28;20113;-52
2022/06/24 11:41:57;;;;;;;7.00;1.73;;;23.70;86.70;;;;;;5013993;28;20098;-53
2022/06/24 11:44:24;;;;;;;4.53;1.60;;;23.70;86.10;;;;;;5012808;28;20064;-48
2022/06/24 11:46:51;;;;;;;6.30;1.70;;;23.90;85.30;;;;;;5014116;28;20096;-51
2022/06/24 11:49:18;;;;;;;5.68;1.80;;;24.00;85.60;;;;;;5014172;28;20092;-52
2022/06/24 11:51:44;;;;;;;4.07;1.65;;;24.00;84.20;;;;;;5009346;28;20034;-50
2022/06/24 11:54:11;;;;;;;4.82;1.77;;;24.10;83.60;;;;;;5013728;28;20050;-50
2022/06/24 11:56:38;;;;;;;3.58;1.65;;;24.10;81.70;;;;;;5003743;28;20093;-54
2022/06/24 11:59:05;;;;;;;5.55;1.90;;;24.00;81.60;;;;;;5007254;28;20042;-53
2022/06/24 12:01:32;;;;;;;4.13;1.80;;;24.00;83.30;;;;;;5032761;28;20489;-52
2022/06/24 12:03:59;;;;;;;3.03;1.60;;;24.10;84.00;;;;;;5015676;28;20533;-57
2022/06/24 12:06:26;;;;;;;4.22;1.80;;;24.20;83.10;;;;;;5013681;28;20133;-52
2022/06/24 12:08:52;;;;;;;3.03;1.40;;;24.30;82.70;;;;;;5012967;28;20034;-51
2022/06/24 12:11:19;;;;;;;5.75;1.77;;;24.30;81.80;;;;;;5013429;28;20045;-50
2022/06/24 12:13:46;;;;;;;4.97;1.45;;;24.30;82.40;;;;;;5008013;28;20042;-50
2022/06/24 12:16:13;;;;;;;3.50;1.45;;;24.40;82.70;;;;;;5012941;28;20041;-55
2022/06/24 12:18:45;;;;;;;3.35;1.40;;;24.50;81.70;;;;;;5012799;28;20038;-52
2022/06/24 12:21:11;;;;;;;5.32;1.83;;;24.60;81.40;;;;;;5024533;28;20099;-51
2022/06/24 12:23:38;;;;;;;3.40;1.50;;;24.60;80.40;;;;;;5032323;28;20053;-53
2022/06/24 12:26:05;;;;;;;3.78;1.50;;;24.70;80.90;;;;;;5012602;28;20046;-50
2022/06/24 12:28:31;;;;;;;4.85;1.80;;;24.60;80.60;;;;;;5013554;28;20482;-54
2022/06/24 12:30:58;;;;;;;3.95;1.52;;;24.70;81.30;;;;;;5013679;28;20042;-52
2022/06/24 12:33:25;;;;;;;4.22;1.60;;;24.70;81.70;;;;;;5007807;28;20045;-52
2022/06/24 12:35:52;;;;;;;4.07;1.77;;;24.70;81.50;;;;;;5013292;28;20050;-52
2022/06/24 12:38:18;;;;;;;5.50;1.98;;;24.60;82.20;;;;;;5010324;28;20042;-54
2022/06/24 12:40:45;;;;;;;4.53;2.00;;;24.60;80.90;;;;;;5009329;28;20477;-50
2022/06/24 12:43:12;;;;;;;4.40;1.80;;;24.60;82.00;;;;;;5032152;28;20124;-54
2022/06/24 12:45:39;;;;;;;4.40;1.60;;;24.50;81.80;;;;;;5032820;28;20077;-55
2022/06/24 12:50:51;;;;;;;5.85;1.50;;;24.30;82.10;;;;;;5011862;28;20048;-51
2022/06/24 12:53:18;;;;;;;14.45;5.30;;;24.20;82.50;;;;;;5013268;28;20096;-53
2022/06/24 12:55:45;;;;;;;3.20;1.70;;;24.00;81.80;;;;;;5010707;28;20042;-55
2022/06/24 12:58:12;;;;;;;5.07;1.80;;;23.90;82.00;;;;;;5012984;28;20069;-50
2022/06/24 13:00:38;;;;;;;4.13;1.60;;;23.70;82.60;;;;;;5018762;28;20037;-52
2022/06/24 13:03:05;;;;;;;4.07;1.40;;;23.40;82.70;;;;;;5029019;28;20124;-55
2022/06/24 13:05:32;;;;;;;4.15;1.70;;;23.30;83.50;;;;;;5032438;28;20046;-52
2022/06/24 13:07:59;;;;;;;4.05;1.83;;;23.20;82.90;;;;;;5013114;28;20042;-53
2022/06/24 13:10:26;;;;;;;4.32;2.13;;;23.00;83.40;;;;;;5011298;28;20034;-52
2022/06/24 13:12:53;;;;;;;4.72;1.70;;;22.90;83.70;;;;;;5013411;28;20477;-56
2022/06/24 13:15:20;;;;;;;4.30;1.80;;;23.00;83.60;;;;;;5013413;28;20514;-54
2022/06/24 13:17:47;;;;;;;4.85;1.98;;;23.30;83.80;;;;;;5013379;28;20045;-52
2022/06/24 13:20:13;;;;;;;5.43;1.80;;;23.60;83.30;;;;;;5013451;28;20141;-54
2022/06/24 13:22:40;;;;;;;3.95;1.65;;;23.80;83.20;;;;;;5011135;28;20046;-51
2022/06/24 13:25:07;;;;;;;5.20;1.70;;;24.00;83.30;;;;;;5014929;28;20137;-55
2022/06/24 13:27:34;;;;;;;3.72;1.60;;;24.10;83.30;;;;;;5016975;28;20049;-55
2022/06/24 13:30:01;;;;;;;4.82;1.75;;;24.10;83.00;;;;;;5016973;28;20038;-56
2022/06/24 13:32:28;;;;;;;5.25;1.67;;;24.00;83.80;;;;;;5016863;28;20551;-53
2022/06/24 13:34:55;;;;;;;4.22;1.80;;;24.10;83.40;;;;;;5016904;28;20046;-57
2022/06/24 13:37:22;;;;;;;3.78;1.67;;;24.10;83.50;;;;;;5014027;28;20472;-54
2022/06/24 13:39:48;;;;;;;3.25;1.60;;;24.30;83.20;;;;;;5013863;28;20046;-52
2022/06/24 13:42:15;;;;;;;4.47;1.70;;;24.40;82.50;;;;;;5016873;28;20049;-49
2022/06/24 13:44:42;;;;;;;6.07;1.55;;;24.40;82.20;;;;;;5016749;28;20041;-52
2022/06/24 13:47:09;;;;;;;4.88;1.75;;;24.40;82.00;;;;;;5016579;28;20049;-52
2022/06/24 13:49:35;;;;;;;4.43;1.90;;;24.40;81.70;;;;;;5013928;28;20096;-52
2022/06/24 13:52:02;;;;;;;4.00;2.17;;;24.30;81.80;;;;;;5016675;28;20041;-50
2022/06/24 13:54:29;;;;;;;6.53;1.85;;;24.10;82.10;;;;;;5010190;28;20044;-54
2022/06/24 13:56:56;;;;;;;5.57;2.15;;;23.90;82.70;;;;;;5016397;28;20091;-56
2022/06/24 13:59:22;;;;;;;4.20;1.95;;;23.50;83.20;;;;;;5016444;28;20046;-51
2022/06/24 14:01:49;;;;;;;3.97;2.05;;;23.40;84.00;;;;;;5011235;28;20054;-51
2022/06/24 14:04:36;;;;;;;6.40;2.03;;;23.10;84.70;;;;;;5016137;28;20497;-54
2022/06/24 14:07:03;;;;;;;5.60;1.98;;;23.00;85.50;;;;;;5015995;28;20041;-57
2022/06/24 14:09:29;;;;;;;6.30;2.30;;;22.90;85.80;;;;;;5015726;28;20401;-51
2022/06/24 14:11:56;;;;;;;4.10;1.88;;;22.90;87.10;;;;;;5016330;28;20034;-50
2022/06/24 14:14:23;;;;;;;4.68;2.10;;;23.00;87.30;;;;;;5026144;28;20076;-52
2022/06/24 14:16:50;;;;;;;5.43;2.05;;;23.10;87.10;;;;;;5035202;28;20095;-50
2022/06/24 14:19:36;;;;;;;5.10;1.88;;;23.30;86.40;;;;;;5008943;28;20049;-55
2022/06/24 14:22:03;;;;;;;5.60;1.80;;;23.50;85.70;;;;;;5016023;28;20493;-56
2022/06/24 14:24:33;;;;;;;3.92;1.65;;;23.50;85.00;;;;;;5014675;28;20048;-49
2022/06/24 14:27:01;;;;;;;4.30;2.00;;;23.70;85.70;;;;;;5009277;28;20038;-55
2022/06/24 14:29:27;;;;;;;4.88;1.98;;;23.80;84.80;;;;;;5015810;28;20042;-49
2022/06/24 14:31:54;;;;;;;7.25;2.08;;;23.90;85.10;;;;;;5009357;28;20042;-54
2022/06/24 14:34:21;;;;;;;7.82;2.20;;;23.90;85.00;;;;;;5009027;28;20046;-50
2022/06/24 14:36:54;;;;;;;6.10;2.10;;;23.80;84.30;;;;;;5007350;28;20513;-54
2022/06/24 14:42:06;;;;;;;4.88;2.05;;;23.50;85.50;;;;;;5015533;28;20052;-54
2022/06/24 14:44:33;;;;;;;3.67;2.05;;;23.50;85.70;;;;;;5012589;28;20053;-52
2022/06/24 14:47:00;;;;;;;5.75;2.20;;;23.70;85.00;;;;;;5013878;28;20050;-53
2022/06/24 14:49:27;;;;;;;4.57;2.17;;;23.70;85.30;;;;;;5008649;28;20152;-47
2022/06/24 14:51:56;;;;;;;7.63;2.40;;;23.70;85.00;;;;;;5013753;28;20105;-51
2022/06/24 14:54:23;;;;;;;7.15;2.60;;;23.60;85.20;;;;;;5012746;28;20092;-51
2022/06/24 14:56:50;;;;;;;5.47;2.70;;;23.50;85.00;;;;;;5013724;28;20129;-49
2022/06/24 14:59:16;;;;;;;7.80;2.63;;;23.30;85.20;;;;;;5014929;28;20045;-54
2022/06/24 15:01:43;;;;;;;8.57;2.83;;;23.30;85.90;;;;;;5015256;28;20132;-53
2022/06/24 15:04:10;;;;;;;6.05;2.78;;;23.30;86.00;;;;;;5015032;28;20120;-53
2022/06/24 15:06:37;;;;;;;9.85;2.88;;;23.20;85.80;;;;;;5015204;28;20061;-47
2022/06/24 15:09:04;;;;;;;7.97;2.70;;;23.20;85.60;;;;;;5013389;28;20045;-51
2022/06/24 15:11:30;;;;;;;7.45;2.58;;;23.20;85.60;;;;;;5014997;28;20045;-55
2022/06/24 15:13:57;;;;;;;6.07;2.65;;;23.20;85.50;;;;;;5014779;28;20088;-54
2022/06/24 15:16:24;;;;;;;6.13;2.20;;;23.10;85.90;;;;;;5014928;28;20053;-51
2022/06/24 15:18:51;;;;;;;5.57;2.53;;;23.20;86.40;;;;;;5015035;28;20048;-48
2022/06/24 15:21:18;;;;;;;5.10;2.45;;;23.40;85.40;;;;;;5014820;28;20042;-54
2022/06/24 15:23:45;;;;;;;6.70;2.70;;;23.60;85.30;;;;;;5013471;28;20451;-53
2022/06/24 15:26:11;;;;;;;5.60;2.60;;;23.80;84.80;;;;;;5014811;28;20042;-58
2022/06/24 15:28:38;;;;;;;6.13;2.45;;;24.00;84.30;;;;;;5014613;28;20393;-52
2022/06/24 15:31:05;;;;;;;5.88;2.55;;;24.00;83.20;;;;;;5014624;28;20354;-52
2022/06/24 15:33:32;;;;;;;5.45;2.70;;;24.10;83.00;;;;;;5014665;28;20125;-53
2022/06/24 15:35:59;;;;;;;8.52;2.88;;;24.10;83.10;;;;;;5014451;28;20049;-51
2022/06/24 15:38:26;;;;;;;7.78;2.33;;;24.20;82.20;;;;;;5015606;28;20100;-54
2022/06/24 15:40:52;;;;;;;8.45;2.42;;;24.30;81.80;;;;;;5010089;28;20497;-50
2022/06/24 15:43:19;;;;;;;6.63;2.50;;;24.40;81.10;;;;;;5028524;28;20484;-46
2022/06/24 15:45:48;;;;;;;8.95;2.55;;;24.40;81.60;;;;;;5032724;28;20049;-55
2022/06/24 15:48:15;;;;;;;6.80;2.42;;;24.40;81.60;;;;;;5032052;28;20477;-51
2022/06/24 15:50:42;;;;;;;4.93;2.03;;;24.60;81.30;;;;;;5032029;28;20049;-50
2022/06/24 15:53:09;;;;;;;5.82;2.22;;;24.60;80.90;;;;;;5033152;28;20053;-50
2022/06/24 15:55:36;;;;;;;4.57;2.50;;;24.70;80.80;;;;;;5033120;28;20503;-51
2022/06/24 15:58:03;;;;;;;3.45;2.03;;;24.90;80.50;;;;;;5031994;28;20083;-55
2022/06/24 16:00:30;;;;;;;5.15;2.47;;;25.10;79.80;;;;;;5014100;28;20073;-54
2022/06/24 16:02:57;;;;;;;6.38;2.58;;;25.00;79.20;;;;;;5014111;28;20038;-55
2022/06/24 16:05:24;;;;;;;5.13;2.65;;;24.50;79.30;;;;;;5014193;28;20054;-53
2022/06/24 16:07:51;;;;;;;5.80;2.47;;;24.00;80.50;;;;;;5013926;28;20034;-54
2022/06/24 16:10:17;;;;;;;5.45;2.33;;;23.60;81.40;;;;;;5014288;28;20045;-53
2022/06/24 16:12:44;;;;;;;3.72;2.20;;;23.40;82.60;;;;;;5027938;28;20134;-51
2022/06/24 16:15:11;;;;;;;5.55;3.20;;;23.20;83.10;;;;;;5032729;28;20060;-49
2022/06/24 16:17:38;;;;;;;5.35;2.63;;;23.00;83.80;;;;;;5032824;28;20041;-54
2022/06/24 16:20:04;;;;;;;5.40;3.00;;;22.70;85.40;;;;;;5032663;28;20080;-49
2022/06/24 16:22:35;;;;;;;5.50;3.35;;;22.60;85.80;;;;;;5033107;28;20124;-50
2022/06/24 16:30:33;;;;;;;6.47;3.72;;;22.50;86.50;;;;;;5032660;28;20052;-52
2022/06/24 16:33:00;;;;;;;5.95;2.78;;;22.50;86.90;;;;;;5032633;28;20111;-53
2022/06/24 16:35:26;;;;;;;9.88;3.30;;;22.60;86.30;;;;;;5032467;28;20111;-51
2022/06/24 16:37:53;;;;;;;6.18;2.70;;;22.70;86.00;;;;;;5016886;28;20038;-52
2022/06/24 16:40:20;;;;;;;5.13;2.78;;;23.00;86.00;;;;;;5013659;28;20045;-51
2022/06/24 16:45:48;;;;;;;5.70;2.55;;;23.00;85.40;;;;;;5009972;28;20114;-56
2022/06/24 16:48:15;;;;;;;7.07;2.60;;;22.90;85.40;;;;;;5007834;28;20056;-50
2022/06/24 16:50:42;;;;;;;5.95;2.70;;;22.80;85.30;;;;;;5013570;28;20046;-49
2022/06/24 16:53:09;;;;;;;3.92;2.40;;;22.70;85.70;;;;;;5012196;28;20084;-52
2022/06/24 16:55:36;;;;;;;5.70;2.33;;;22.60;86.10;;;;;;5013565;28;20034;-53
2022/06/24 16:58:03;;;;;;;4.15;2.58;;;22.70;86.30;;;;;;5012527;28;20468;-53
2022/06/24 17:00:29;;;;;;;4.85;2.67;;;22.80;86.30;;;;;;5014779;28;20050;-47
2022/06/24 17:02:56;;;;;;;8.20;2.53;;;22.80;86.40;;;;;;5016255;28;20119;-50
2022/06/24 17:05:23;;;;;;;3.67;1.90;;;22.90;86.00;;;;;;5017300;28;20050;-55
2022/06/24 17:07:50;;;;;;;4.88;2.20;;;22.90;86.20;;;;;;5017338;28;20084;-53
2022/06/24 17:10:16;;;;;;;4.35;1.95;;;23.10;85.60;;;;;;5017320;28;20481;-53
2022/06/24 17:12:43;;;;;;;4.18;1.75;;;23.10;84.60;;;;;;5017173;28;20187;-47
2022/06/24 17:15:10;;;;;;;3.83;1.95;;;23.10;84.30;;;;;;5017103;28;20049;-50
2022/06/24 17:17:36;;;;;;;4.47;1.60;;;23.00;83.90;;;;;;5017098;28;20417;-47
2022/06/24 17:20:03;;;;;;;5.93;1.95;;;23.00;84.20;;;;;;5017109;28;20053;-56
2022/06/24 17:22:30;;;;;;;4.20;1.90;;;22.90;83.60;;;;;;5016991;28;20054;-51
2022/06/24 17:24:57;;;;;;;3.35;1.80;;;22.90;84.00;;;;;;5015777;28;20049;-56
2022/06/24 17:27:23;;;;;;;5.47;1.70;;;22.80;84.00;;;;;;5016993;28;20041;-49
2022/06/24 17:29:50;;;;;;;3.55;1.70;;;22.70;83.60;;;;;;5016898;28;20049;-51
2022/06/24 17:32:17;;;;;;;4.22;1.38;;;22.60;83.40;;;;;;5016802;28;20042;-51
2022/06/24 17:34:48;;;;;;;3.38;1.60;;;22.50;84.20;;;;;;5026361;28;20124;-55
2022/06/24 17:37:15;;;;;;;4.00;1.60;;;22.50;83.60;;;;;;5029145;28;20456;-53
2022/06/24 17:39:42;;;;;;;5.82;2.15;;;22.20;83.40;;;;;;5016695;28;20050;-50
2022/06/24 17:42:09;;;;;;;2.90;1.63;;;22.10;84.00;;;;;;5032273;28;20397;-57
2022/06/24 17:44:35;;;;;;;5.68;2.03;;;21.90;83.40;;;;;;5035498;28;20068;-54
2022/06/24 17:47:02;;;;;;;4.15;1.80;;;21.90;84.30;;;;;;5035661;28;20058;-49
2022/06/24 17:49:29;;;;;;;4.15;1.60;;;21.90;84.30;;;;;;5035395;28;20046;-54
2022/06/24 17:51:56;;;;;;;2.70;1.63;;;21.90;84.60;;;;;;5035318;28;20160;-52
2022/06/24 17:54:22;;;;;;;6.50;1.77;;;21.80;84.30;;;;;;5035341;28;20401;-51
2022/06/24 17:56:49;;;;;;;4.32;1.80;;;21.80;84.60;;;;;;5021559;28;20050;-53
2022/06/24 17:59:21;;;;;;;4.68;2.00;;;21.70;85.00;;;;;;5034952;28;20076;-54
2022/06/24 18:01:48;;;;;;;7.28;1.73;;;21.60;85.50;;;;;;5035311;28;20045;-54
2022/06/24 18:04:15;;;;;;;4.32;1.70;;;21.50;85.30;;;;;;5033901;28;20050;-55
2022/06/24 18:06:42;;;;;;;5.53;1.80;;;21.50;85.10;;;;;;5033511;28;20041;-52
2022/06/24 18:09:09;;;;;;;4.35;1.85;;;21.30;85.20;;;;;;5012340;28;20409;-55
2022/06/24 18:11:38;;;;;;;4.10;1.92;;;21.30;85.30;;;;;;5016127;28;20046;-55
2022/06/24 18:14:05;;;;;;;2.75;1.50;;;21.30;85.60;;;;;;5016063;28;20065;-52
2022/06/24 18:16:31;;;;;;;4.35;1.58;;;21.40;85.10;;;;;;5031687;28;20492;-50
2022/06/24 18:18:58;;;;;;;4.97;1.70;;;21.40;84.80;;;;;;5034808;28;20042;-52
2022/06/24 18:21:25;;;;;;;3.90;1.58;;;21.50;85.10;;;;;;5034858;28;20041;-52
2022/06/24 18:23:52;;;;;;;3.50;1.80;;;21.50;84.50;;;;;;5034748;28;20037;-52
2022/06/24 18:26:20;;;;;;;5.70;1.70;;;21.40;84.70;;;;;;5034719;28;20046;-54
2022/06/24 18:28:46;;;;;;;3.03;1.90;;;21.30;85.10;;;;;;5034864;28;20037;-54
2022/06/24 18:31:13;;;;;;;4.70;1.88;;;21.30;85.40;;;;;;5033594;28;20046;-54
2022/06/24 18:33:40;;;;;;;4.90;1.88;;;21.30;85.70;;;;;;5034614;28;20064;-56
2022/06/24 18:36:07;;;;;;;4.25;1.88;;;21.30;85.90;;;;;;5034556;28;20054;-49
2022/06/24 18:38:34;;;;;;;6.18;1.80;;;21.30;85.60;;;;;;5019195;28;20042;-51
2022/06/24 18:41:02;;;;;;;8.35;1.88;;;21.20;85.80;;;;;;5015491;28;20046;-51
2022/06/24 18:43:29;;;;;;;7.05;1.90;;;21.00;86.40;;;;;;5014393;28;20041;-49
2022/06/24 18:45:55;;;;;;;3.65;1.80;;;20.90;86.80;;;;;;5015588;28;20041;-56
2022/06/24 18:48:23;;;;;;;4.45;1.85;;;20.80;86.80;;;;;;5014126;28;20092;-55
2022/06/24 18:50:52;;;;;;;4.82;2.20;;;20.90;87.40;;;;;;5015437;28;20065;-53
2022/06/24 18:53:19;;;;;;;6.05;2.00;;;20.90;87.50;;;;;;5015362;28;20658;-54
2022/06/24 18:55:46;;;;;;;4.43;2.20;;;20.80;87.70;;;;;;5015488;28;20046;-55
2022/06/24 18:58:13;;;;;;;4.78;2.03;;;20.70;88.00;;;;;;5015332;28;20048;-54
2022/06/24 19:00:39;;;;;;;4.35;2.10;;;20.60;88.50;;;;;;5015602;28;20075;-52
2022/06/24 19:03:07;;;;;;;3.95;2.05;;;20.60;88.80;;;;;;5015294;28;20041;-50
2022/06/24 19:05:34;;;;;;;4.97;2.00;;;20.50;88.90;;;;;;5015129;28;20503;-57
2022/06/24 19:08:01;;;;;;;3.38;1.88;;;20.50;89.00;;;;;;5014994;28;20048;-54
2022/06/24 19:10:27;;;;;;;4.50;1.80;;;20.50;89.20;;;;;;5030681;28;20092;-52
2022/06/24 19:12:54;;;;;;;4.30;1.73;;;20.50;89.20;;;;;;5034019;28;20041;-50
2022/06/24 19:15:21;;;;;;;3.50;1.98;;;20.50;89.20;;;;;;5033923;28;20042;-52
2022/06/24 19:17:48;;;;;;;5.45;2.10;;;20.50;89.00;;;;;;5033847;28;20503;-53
2022/06/24 19:20:14;;;;;;;4.07;2.20;;;20.40;89.30;;;;;;5033064;28;20111;-55
2022/06/24 19:22:41;;;;;;;5.18;1.77;;;20.40;89.60;;;;;;5033571;28;20041;-52
2022/06/24 19:25:08;;;;;;;5.15;2.28;;;20.30;89.80;;;;;;5033579;28;20047;-54
2022/06/24 19:27:34;;;;;;;7.30;2.10;;;20.30;90.00;;;;;;5033620;28;20045;-50
2022/06/24 19:30:20;;;;;;;5.20;1.90;;;20.20;90.00;;;;;;5033566;28;20064;-51
2022/06/24 19:32:47;;;;;;;4.07;1.92;;;20.20;90.10;;;;;;5033652;28;20099;-55
2022/06/24 19:35:22;;;;;;;4.22;1.95;;;20.20;90.20;;;;;;5015406;28;20474;-54
2022/06/24 19:38:01;;;;;;;5.47;2.10;;;20.10;90.10;;;;;;5014712;28;20038;-52
2022/06/24 19:40:28;;;;;;;3.40;1.90;;;20.10;90.30;;;;;;5014882;28;20397;-54
2022/06/24 19:42:55;;;;;;;5.75;2.28;;;20.10;90.40;;;;;;5014598;28;20408;-52
2022/06/24 19:45:23;;;;;;;7.00;2.67;;;20.10;90.50;;;;;;5014444;28;20045;-51
2022/06/24 19:47:50;;;;;;;3.15;2.00;;;20.00;90.30;;;;;;5014328;28;20049;-52
2022/06/24 19:50:17;;;;;;;5.18;2.00;;;20.00;90.40;;;;;;5014218;28;20077;-56
2022/06/24 19:52:43;;;;;;;3.72;2.10;;;19.90;90.50;;;;;;5014792;28;20045;-48
2022/06/24 19:55:10;;;;;;;5.78;2.72;;;19.90;90.60;;;;;;5007797;28;20103;-53
2022/06/24 19:57:37;;;;;;;9.10;2.42;;;19.90;90.70;;;;;;5007826;28;20044;-52
2022/06/24 20:00:23;;;;;;;4.35;2.05;;;19.80;90.70;;;;;;5010466;28;20129;-50
2022/06/24 20:05:48;;;;;;;6.03;2.20;;;19.90;90.70;;;;;;5014139;28;20050;-53
2022/06/24 20:08:15;;;;;;;4.68;2.20;;;19.80;90.70;;;;;;5007769;28;20563;-56
2022/06/24 20:10:42;;;;;;;6.43;2.28;;;19.90;90.60;;;;;;5007628;28;20042;-54
2022/06/24 20:13:09;;;;;;;4.18;2.20;;;19.80;90.70;;;;;;5007497;28;20038;-52
2022/06/24 20:15:36;;;;;;;7.97;2.65;;;19.80;90.80;;;;;;5033178;28;20041;-52
2022/06/24 20:18:02;;;;;;;5.97;2.63;;;19.80;90.90;;;;;;5033034;28;20045;-57
2022/06/24 20:20:29;;;;;;;7.15;2.25;;;19.70;90.90;;;;;;5032672;28;20492;-54
2022/06/24 20:23:11;;;;;;;7.25;2.30;;;19.70;91.00;;;;;;5032695;28;20488;-55
2022/06/24 20:25:44;;;;;;;6.15;2.50;;;19.70;91.10;;;;;;5032766;28;20046;-51
2022/06/24 20:28:11;;;;;;;5.57;2.50;;;19.70;91.10;;;;;;5032851;28;20157;-49
2022/06/24 20:30:38;;;;;;;6.30;2.63;;;19.70;91.10;;;;;;5032646;28;20037;-54
2022/06/24 20:33:05;;;;;;;5.75;2.20;;;19.60;91.20;;;;;;5032450;28;20501;-49
2022/06/24 20:35:32;;;;;;;6.35;2.42;;;19.60;91.20;;;;;;5032379;28;20481;-49
2022/06/24 20:37:59;;;;;;;8.20;2.60;;;19.60;91.40;;;;;;5019414;28;20037;-48
2022/06/24 20:40:26;;;;;;;7.05;2.40;;;19.50;91.50;;;;;;5013872;28;20046;-49
2022/06/24 20:42:53;;;;;;;6.45;2.85;;;19.50;91.50;;;;;;5014257;28;20046;-50
2022/06/24 20:45:19;;;;;;;6.70;2.80;;;19.50;91.50;;;;;;5013697;28;20037;-52
2022/06/24 20:47:46;;;;;;;4.10;2.30;;;19.50;91.50;;;;;;5013482;28;20042;-53
2022/06/24 20:50:13;;;;;;;5.88;2.50;;;19.50;91.60;;;;;;5013470;28;20443;-52
2022/06/24 20:52:39;;;;;;;6.35;2.50;;;19.40;91.60;;;;;;5012415;28;20046;-54
2022/06/24 20:55:06;;;;;;;4.15;2.13;;;19.40;91.70;;;;;;5013690;28;20092;-49
2022/06/24 20:57:33;;;;;;;4.60;2.65;;;19.40;91.70;;;;;;5013585;28;20544;-54
2022/06/24 21:00:00;;;;;;;4.55;2.45;;;19.40;91.70;;;;;;5013676;28;20084;-50
2022/06/24 21:02:27;;;;;;;4.25;2.42;;;19.40;91.70;;;;;;5013657;28;20465;-54
2022/06/24 21:04:54;;;;;;;5.43;2.30;;;19.30;91.70;;;;;;5013387;28;20046;-52
2022/06/24 21:07:20;;;;;;;6.35;2.47;;;19.30;91.80;;;;;;5013455;28;20042;-49
2022/06/24 21:09:47;;;;;;;3.25;1.98;;;19.30;91.80;;;;;;5013660;28;20436;-55
2022/06/24 21:12:14;;;;;;;4.95;2.50;;;19.30;91.80;;;;;;5013446;28;20045;-52
2022/06/24 21:14:41;;;;;;;4.53;2.25;;;19.30;91.90;;;;;;5013412;28;20034;-53
2022/06/24 21:17:07;;;;;;;4.65;2.45;;;19.30;92.00;;;;;;5013569;28;20042;-51
2022/06/24 21:19:34;;;;;;;5.50;2.65;;;19.20;92.20;;;;;;5013395;28;20501;-55
2022/06/24 21:22:01;;;;;;;6.05;2.45;;;19.20;92.30;;;;;;5013508;28;20042;-57
2022/06/24 21:24:28;;;;;;;6.78;2.45;;;19.10;92.30;;;;;;5013281;28;20050;-57
2022/06/24 21:26:54;;;;;;;7.82;2.40;;;19.10;92.50;;;;;;5013413;28;20042;-54
2022/06/24 21:29:21;;;;;;;6.68;2.60;;;19.10;92.70;;;;;;5013440;28;20034;-48
2022/06/24 21:31:48;;;;;;;6.60;3.03;;;19.00;93.00;;;;;;5020078;28;20045;-51
2022/06/24 21:34:14;;;;;;;4.47;2.88;;;19.00;94.10;;;;;;5032715;28;20073;-52
2022/06/24 21:36:41;;;;;;;6.68;2.95;;;18.90;94.10;;;;;;5031085;28;20057;-55
2022/06/24 21:39:08;;;;;;;5.28;2.97;;;18.80;94.30;;;;;;5011807;28;20458;-49
2022/06/24 21:41:35;;;;;;;7.68;3.70;;;18.70;94.20;;;;;;5013204;28;20056;-56